TimeCST,TemperatureF,Dew PointF,Humidity,Sea Level PressureIn,VisibilityMPH,Wind Direction,Wind SpeedMPH,Gust SpeedMPH,PrecipitationIn,Events,Conditions,WindDirDegrees,DateUTC
12:51 AM,57.9,55.0,90,30.17,8.0,ENE,4.6,-,N/A,,Overcast,70,2012-11-20 06:51:00
1:51 AM,59.0,55.9,90,30.17,7.0,NNE,3.5,-,N/A,,Clear,20,2012-11-20 07:51:00
2:17 AM,57.2,55.4,94,30.17,7.0,NE,3.5,-,N/A,,Scattered Clouds,50,2012-11-20 08:17:00
2:51 AM,55.9,54.0,93,30.18,5.0,Calm,Calm,-,N/A,,Clear,0,2012-11-20 08:51:00
3:51 AM,55.9,54.0,93,30.17,5.0,Calm,Calm,-,N/A,,Clear,0,2012-11-20 09:51:00
4:18 AM,55.4,53.6,94,30.16,2.5,ENE,3.5,-,N/A,,Partly Cloudy,70,2012-11-20 10:18:00
4:27 AM,53.6,53.6,100,30.16,1.2,Calm,Calm,-,N/A,,Scattered Clouds,0,2012-11-20 10:27:00
4:29 AM,55.4,53.6,94,30.16,0.8,Calm,Calm,-,N/A,,Mist,0,2012-11-20 10:29:00
4:38 AM,53.6,51.8,94,30.16,0.2,Calm,Calm,-,N/A,Fog,Fog,0,2012-11-20 10:38:00
4:51 AM,53.1,51.1,93,30.16,0.2,Calm,Calm,-,N/A,Fog,Fog,0,2012-11-20 10:51:00
4:58 AM,53.6,51.8,94,30.16,1.0,Calm,Calm,-,N/A,,Mist,0,2012-11-20 10:58:00
5:00 AM,53.6,51.8,94,30.16,1.5,Calm,Calm,-,N/A,,Scattered Clouds,0,2012-11-20 11:00:00
5:03 AM,53.6,51.8,94,30.16,0.8,Calm,Calm,-,N/A,,Mist,0,2012-11-20 11:03:00
5:07 AM,53.6,51.8,94,30.16,0.2,Calm,Calm,-,N/A,Fog,Fog,0,2012-11-20 11:07:00
5:51 AM,52.0,51.1,97,30.17,0.2,Calm,Calm,-,N/A,Fog,Fog,0,2012-11-20 11:51:00
6:51 AM,52.0,51.1,97,30.18,0.2,Calm,Calm,-,N/A,Fog,Fog,0,2012-11-20 12:51:00
7:51 AM,55.9,55.0,97,30.20,0.2,Calm,Calm,-,N/A,Fog,Fog,0,2012-11-20 13:51:00
7:56 AM,55.4,55.4,100,30.21,0.2,Calm,Calm,-,N/A,Fog,Fog,0,2012-11-20 13:56:00
8:03 AM,57.2,55.4,94,30.21,1.0,Calm,Calm,-,N/A,,Mist,0,2012-11-20 14:03:00
8:06 AM,57.2,57.2,100,30.21,2.0,Calm,Calm,-,N/A,,Mostly Cloudy,0,2012-11-20 14:06:00
8:13 AM,59.0,57.2,94,30.21,2.0,Calm,Calm,-,N/A,,Scattered Clouds,0,2012-11-20 14:13:00
8:24 AM,60.8,59.0,94,30.22,2.0,Calm,Calm,-,N/A,,Clear,0,2012-11-20 14:24:00
8:31 AM,60.8,59.0,94,30.22,5.0,Calm,Calm,-,N/A,,Clear,0,2012-11-20 14:31:00
8:51 AM,64.9,59.0,81,30.22,5.0,Calm,Calm,-,N/A,,Haze,0,2012-11-20 14:51:00
8:57 AM,66.2,59.0,78,30.23,9.0,Calm,Calm,-,N/A,,Clear,0,2012-11-20 14:57:00
9:51 AM,71.1,57.9,63,30.23,10.0,ESE,3.5,-,N/A,,Clear,120,2012-11-20 15:51:00
10:51 AM,73.9,55.9,53,30.22,10.0,Calm,Calm,-,N/A,,Clear,0,2012-11-20 16:51:00
11:51 AM,78.1,55.0,45,30.20,8.0,Calm,Calm,-,N/A,,Clear,0,2012-11-20 17:51:00
12:51 PM,79.0,55.9,45,30.17,10.0,SSE,4.6,-,N/A,,Clear,150,2012-11-20 18:51:00
1:51 PM,80.1,55.9,43,30.14,10.0,Variable,4.6,-,N/A,,Partly Cloudy,0,2012-11-20 19:51:00
2:51 PM,81.0,55.0,41,30.12,10.0,Variable,3.5,-,N/A,,Scattered Clouds,0,2012-11-20 20:51:00
3:51 PM,80.1,55.9,43,30.12,10.0,SE,4.6,-,N/A,,Mostly Cloudy,130,2012-11-20 21:51:00
4:51 PM,78.1,57.0,48,30.13,10.0,South,6.9,-,N/A,,Mostly Cloudy,180,2012-11-20 22:51:00
5:51 PM,73.9,60.1,62,30.14,10.0,South,8.1,-,N/A,,Overcast,170,2012-11-20 23:51:00
6:51 PM,69.1,57.0,65,30.16,10.0,South,6.9,-,N/A,,Clear,180,2012-11-21 00:51:00
7:51 PM,66.9,60.1,79,30.18,10.0,South,6.9,-,N/A,,Clear,190,2012-11-21 01:51:00
8:51 PM,64.9,61.0,87,30.19,10.0,South,4.6,-,N/A,,Clear,170,2012-11-21 02:51:00
9:51 PM,62.1,59.0,90,30.20,10.0,Calm,Calm,-,N/A,,Clear,0,2012-11-21 03:51:00
10:51 PM,59.0,57.0,93,30.20,6.0,SSE,3.5,-,N/A,,Clear,160,2012-11-21 04:51:00
11:51 PM,57.0,55.0,93,30.20,3.0,Calm,Calm,-,N/A,,Clear,0,2012-11-21 05:51:00
11:59 PM,57.2,55.4,94,30.20,2.0,Calm,Calm,-,N/A,,Clear,0,2012-11-21 05:59:00